Terminal Aerodrome Forecast
Issued by NWS

Home | Current Version | Previous Version | Text Only | Print | Product List | Glossary Off
Versions: 1 2 3 4 5 6 7 8 9 10 11 12 13 14 15

874
FTUS43 KMPX 171120
TAFAXN
TAF
KAXN 171120Z 1712/1812 17006KT P6SM SKC
      TEMPO 1712/1713 5SM BR
     FM172000 25006KT P6SM FEW150
     FM180000 29009KT P6SM SCT150
     FM180500 28009KT P6SM FEW045=

USA.gov is the U.S. government's official web portal to all federal, state and local government web resources and services.